sensor_id;sensor_type;location;lat;lon;timestamp;P1;durP1;ratioP1;P2;durP2;ratioP2
46653;SDS011;38960;51.074;17.004;2023-12-20T00:00:02;10.80;;;6.03;;
46653;SDS011;38960;51.074;17.004;2023-12-20T00:02:30;10.50;;;6.32;;
46653;SDS011;38960;51.074;17.004;2023-12-20T00:04:55;12.40;;;7.30;;
46653;SDS011;38960;51.074;17.004;2023-12-20T00:07:21;7.97;;;5.85;;
46653;SDS011;38960;51.074;17.004;2023-12-20T00:09:46;10.38;;;6.63;;
46653;SDS011;38960;51.074;17.004;2023-12-20T00:12:12;10.48;;;6.93;;
46653;SDS011;38960;51.074;17.004;2023-12-20T00:14:37;10.55;;;6.75;;
46653;SDS011;38960;51.074;17.004;2023-12-20T00:17:03;10.82;;;6.85;;
46653;SDS011;38960;51.074;17.004;2023-12-20T00:19:29;9.13;;;6.30;;
46653;SDS011;38960;51.074;17.004;2023-12-20T00:21:54;9.85;;;6.90;;
46653;SDS011;38960;51.074;17.004;2023-12-20T00:24:19;9.55;;;6.10;;
46653;SDS011;38960;51.074;17.004;2023-12-20T00:26:45;11.95;;;7.07;;
46653;SDS011;38960;51.074;17.004;2023-12-20T00:29:11;13.13;;;7.25;;
46653;SDS011;38960;51.074;17.004;2023-12-20T00:31:37;11.30;;;6.25;;
46653;SDS011;38960;51.074;17.004;2023-12-20T00:34:02;9.73;;;6.82;;
46653;SDS011;38960;51.074;17.004;2023-12-20T00:36:28;12.38;;;6.93;;
46653;SDS011;38960;51.074;17.004;2023-12-20T00:38:53;10.60;;;6.70;;
46653;SDS011;38960;51.074;17.004;2023-12-20T00:41:19;10.07;;;7.25;;
46653;SDS011;38960;51.074;17.004;2023-12-20T00:43:44;11.73;;;6.88;;
46653;SDS011;38960;51.074;17.004;2023-12-20T00:46:10;10.80;;;6.93;;
46653;SDS011;38960;51.074;17.004;2023-12-20T00:48:35;9.18;;;6.32;;
46653;SDS011;38960;51.074;17.004;2023-12-20T00:51:01;10.48;;;6.78;;
46653;SDS011;38960;51.074;17.004;2023-12-20T00:53:26;11.60;;;7.53;;
46653;SDS011;38960;51.074;17.004;2023-12-20T00:55:52;9.85;;;7.45;;
46653;SDS011;38960;51.074;17.004;2023-12-20T00:58:17;9.32;;;6.30;;
46653;SDS011;38960;51.074;17.004;2023-12-20T01:00:43;9.63;;;6.82;;
46653;SDS011;38960;51.074;17.004;2023-12-20T01:03:09;13.25;;;6.85;;
46653;SDS011;38960;51.074;17.004;2023-12-20T01:05:34;9.20;;;6.60;;
46653;SDS011;38960;51.074;17.004;2023-12-20T01:08:00;8.48;;;6.13;;
46653;SDS011;38960;51.074;17.004;2023-12-20T01:10:28;11.15;;;6.47;;
46653;SDS011;38960;51.074;17.004;2023-12-20T01:12:54;9.68;;;7.18;;
46653;SDS011;38960;51.074;17.004;2023-12-20T01:15:20;9.35;;;6.55;;
46653;SDS011;38960;51.074;17.004;2023-12-20T01:17:45;10.20;;;7.82;;
46653;SDS011;38960;51.074;17.004;2023-12-20T01:20:11;10.18;;;7.25;;
46653;SDS011;38960;51.074;17.004;2023-12-20T01:22:36;10.15;;;6.80;;
46653;SDS011;38960;51.074;17.004;2023-12-20T01:25:02;8.45;;;6.72;;
46653;SDS011;38960;51.074;17.004;2023-12-20T01:27:27;9.00;;;6.40;;
46653;SDS011;38960;51.074;17.004;2023-12-20T01:29:53;8.98;;;6.45;;
46653;SDS011;38960;51.074;17.004;2023-12-20T01:32:19;9.35;;;7.05;;
46653;SDS011;38960;51.074;17.004;2023-12-20T01:34:44;10.43;;;6.25;;
46653;SDS011;38960;51.074;17.004;2023-12-20T01:37:10;10.13;;;6.78;;
46653;SDS011;38960;51.074;17.004;2023-12-20T01:39:36;9.20;;;6.03;;
46653;SDS011;38960;51.074;17.004;2023-12-20T01:42:01;8.05;;;5.97;;
46653;SDS011;38960;51.074;17.004;2023-12-20T01:44:27;9.77;;;6.18;;
46653;SDS011;38960;51.074;17.004;2023-12-20T01:46:52;8.70;;;6.15;;
46653;SDS011;38960;51.074;17.004;2023-12-20T01:49:18;8.65;;;5.70;;
46653;SDS011;38960;51.074;17.004;2023-12-20T01:51:44;7.93;;;5.45;;
46653;SDS011;38960;51.074;17.004;2023-12-20T01:54:10;8.70;;;5.55;;
46653;SDS011;38960;51.074;17.004;2023-12-20T01:56:36;10.50;;;5.22;;
46653;SDS011;38960;51.074;17.004;2023-12-20T01:59:01;13.73;;;5.68;;
46653;SDS011;38960;51.074;17.004;2023-12-20T02:01:27;10.68;;;5.20;;
46653;SDS011;38960;51.074;17.004;2023-12-20T02:03:53;6.22;;;4.38;;
46653;SDS011;38960;51.074;17.004;2023-12-20T02:06:20;7.30;;;4.88;;
46653;SDS011;38960;51.074;17.004;2023-12-20T02:08:46;8.25;;;5.43;;
46653;SDS011;38960;51.074;17.004;2023-12-20T02:11:12;7.50;;;5.30;;
46653;SDS011;38960;51.074;17.004;2023-12-20T02:13:38;6.90;;;4.75;;
46653;SDS011;38960;51.074;17.004;2023-12-20T02:16:03;8.18;;;5.32;;
46653;SDS011;38960;51.074;17.004;2023-12-20T02:18:29;8.05;;;5.35;;
46653;SDS011;38960;51.074;17.004;2023-12-20T02:20:54;7.45;;;4.70;;
46653;SDS011;38960;51.074;17.004;2023-12-20T02:23:20;7.28;;;5.40;;
46653;SDS011;38960;51.074;17.004;2023-12-20T02:25:46;7.05;;;5.05;;
46653;SDS011;38960;51.074;17.004;2023-12-20T02:28:11;8.95;;;5.20;;
46653;SDS011;38960;51.074;17.004;2023-12-20T02:30:37;9.07;;;4.97;;
46653;SDS011;38960;51.074;17.004;2023-12-20T02:33:03;4.95;;;4.18;;
46653;SDS011;38960;51.074;17.004;2023-12-20T02:35:29;8.88;;;5.18;;
46653;SDS011;38960;51.074;17.004;2023-12-20T02:37:54;8.65;;;4.55;;
46653;SDS011;38960;51.074;17.004;2023-12-20T02:40:20;5.88;;;4.10;;
46653;SDS011;38960;51.074;17.004;2023-12-20T02:42:45;5.72;;;4.60;;
46653;SDS011;38960;51.074;17.004;2023-12-20T02:45:11;9.40;;;4.93;;
46653;SDS011;38960;51.074;17.004;2023-12-20T02:47:36;9.70;;;5.07;;
46653;SDS011;38960;51.074;17.004;2023-12-20T02:50:02;8.02;;;4.60;;
46653;SDS011;38960;51.074;17.004;2023-12-20T02:52:28;12.57;;;5.40;;
46653;SDS011;38960;51.074;17.004;2023-12-20T02:54:54;6.13;;;3.75;;
46653;SDS011;38960;51.074;17.004;2023-12-20T02:57:19;9.38;;;4.25;;
46653;SDS011;38960;51.074;17.004;2023-12-20T02:59:45;5.80;;;3.35;;
46653;SDS011;38960;51.074;17.004;2023-12-20T03:02:10;7.60;;;3.50;;
46653;SDS011;38960;51.074;17.004;2023-12-20T03:04:36;7.78;;;4.13;;
46653;SDS011;38960;51.074;17.004;2023-12-20T03:07:01;9.55;;;4.93;;
46653;SDS011;38960;51.074;17.004;2023-12-20T03:09:27;9.02;;;4.97;;
46653;SDS011;38960;51.074;17.004;2023-12-20T03:11:52;8.25;;;4.32;;
46653;SDS011;38960;51.074;17.004;2023-12-20T03:14:17;10.63;;;4.47;;
46653;SDS011;38960;51.074;17.004;2023-12-20T03:16:46;7.75;;;4.68;;
46653;SDS011;38960;51.074;17.004;2023-12-20T03:19:14;6.33;;;4.00;;
46653;SDS011;38960;51.074;17.004;2023-12-20T03:21:41;7.47;;;4.32;;
46653;SDS011;38960;51.074;17.004;2023-12-20T03:24:06;7.55;;;3.97;;
46653;SDS011;38960;51.074;17.004;2023-12-20T03:26:32;7.40;;;3.80;;
46653;SDS011;38960;51.074;17.004;2023-12-20T03:28:57;5.80;;;3.90;;
46653;SDS011;38960;51.074;17.004;2023-12-20T03:31:23;7.68;;;4.18;;
46653;SDS011;38960;51.074;17.004;2023-12-20T03:33:48;6.30;;;3.75;;
46653;SDS011;38960;51.074;17.004;2023-12-20T03:36:14;4.95;;;3.75;;
46653;SDS011;38960;51.074;17.004;2023-12-20T03:38:39;6.55;;;4.00;;
46653;SDS011;38960;51.074;17.004;2023-12-20T03:41:06;4.53;;;2.72;;
46653;SDS011;38960;51.074;17.004;2023-12-20T03:43:32;3.53;;;2.38;;
46653;SDS011;38960;51.074;17.004;2023-12-20T03:45:57;3.97;;;2.30;;
46653;SDS011;38960;51.074;17.004;2023-12-20T03:48:24;4.10;;;2.80;;
46653;SDS011;38960;51.074;17.004;2023-12-20T03:50:49;3.20;;;2.22;;
46653;SDS011;38960;51.074;17.004;2023-12-20T03:53:14;3.47;;;2.05;;
46653;SDS011;38960;51.074;17.004;2023-12-20T03:55:40;2.97;;;1.83;;
46653;SDS011;38960;51.074;17.004;2023-12-20T03:58:05;3.00;;;1.70;;
46653;SDS011;38960;51.074;17.004;2023-12-20T04:00:31;1.98;;;1.50;;
46653;SDS011;38960;51.074;17.004;2023-12-20T04:02:56;1.60;;;1.33;;
46653;SDS011;38960;51.074;17.004;2023-12-20T04:05:22;2.17;;;1.58;;
46653;SDS011;38960;51.074;17.004;2023-12-20T04:07:47;2.67;;;1.65;;
46653;SDS011;38960;51.074;17.004;2023-12-20T04:10:13;3.85;;;1.92;;
46653;SDS011;38960;51.074;17.004;2023-12-20T04:12:39;1.30;;;1.10;;
46653;SDS011;38960;51.074;17.004;2023-12-20T04:15:04;2.35;;;1.48;;
46653;SDS011;38960;51.074;17.004;2023-12-20T04:17:34;2.30;;;1.33;;
46653;SDS011;38960;51.074;17.004;2023-12-20T04:20:01;1.60;;;1.38;;
46653;SDS011;38960;51.074;17.004;2023-12-20T04:22:26;2.15;;;1.42;;
46653;SDS011;38960;51.074;17.004;2023-12-20T04:24:52;1.77;;;1.40;;
46653;SDS011;38960;51.074;17.004;2023-12-20T04:27:17;2.00;;;1.60;;
46653;SDS011;38960;51.074;17.004;2023-12-20T04:29:43;2.05;;;1.42;;
46653;SDS011;38960;51.074;17.004;2023-12-20T04:32:08;1.70;;;1.20;;
46653;SDS011;38960;51.074;17.004;2023-12-20T04:34:34;0.90;;;0.90;;
46653;SDS011;38960;51.074;17.004;2023-12-20T04:36:59;2.80;;;0.95;;
46653;SDS011;38960;51.074;17.004;2023-12-20T04:39:26;0.77;;;0.77;;
46653;SDS011;38960;51.074;17.004;2023-12-20T04:41:52;1.42;;;0.90;;
46653;SDS011;38960;51.074;17.004;2023-12-20T04:44:17;1.15;;;0.80;;
46653;SDS011;38960;51.074;17.004;2023-12-20T04:46:43;0.77;;;0.77;;
46653;SDS011;38960;51.074;17.004;2023-12-20T04:49:08;1.00;;;0.90;;
46653;SDS011;38960;51.074;17.004;2023-12-20T04:51:34;0.80;;;0.80;;
46653;SDS011;38960;51.074;17.004;2023-12-20T04:54:00;2.17;;;0.88;;
46653;SDS011;38960;51.074;17.004;2023-12-20T04:56:26;0.70;;;0.70;;
46653;SDS011;38960;51.074;17.004;2023-12-20T04:58:51;0.50;;;0.50;;
46653;SDS011;38960;51.074;17.004;2023-12-20T05:01:17;0.77;;;0.60;;
46653;SDS011;38960;51.074;17.004;2023-12-20T05:03:42;0.57;;;0.50;;
46653;SDS011;38960;51.074;17.004;2023-12-20T05:06:09;1.00;;;0.90;;
46653;SDS011;38960;51.074;17.004;2023-12-20T05:08:34;0.50;;;0.50;;
46653;SDS011;38960;51.074;17.004;2023-12-20T05:11:00;1.15;;;0.60;;
46653;SDS011;38960;51.074;17.004;2023-12-20T05:13:25;1.23;;;0.70;;
46653;SDS011;38960;51.074;17.004;2023-12-20T05:15:51;0.70;;;0.70;;
46653;SDS011;38960;51.074;17.004;2023-12-20T05:18:16;0.73;;;0.68;;
46653;SDS011;38960;51.074;17.004;2023-12-20T05:20:42;0.60;;;0.60;;
46653;SDS011;38960;51.074;17.004;2023-12-20T05:23:07;0.73;;;0.60;;
46653;SDS011;38960;51.074;17.004;2023-12-20T05:25:33;2.47;;;1.25;;
46653;SDS011;38960;51.074;17.004;2023-12-20T05:27:58;1.50;;;0.90;;
46653;SDS011;38960;51.074;17.004;2023-12-20T05:30:24;1.13;;;0.80;;
46653;SDS011;38960;51.074;17.004;2023-12-20T05:32:49;2.00;;;0.90;;
46653;SDS011;38960;51.074;17.004;2023-12-20T05:35:15;2.53;;;0.90;;
46653;SDS011;38960;51.074;17.004;2023-12-20T05:37:41;1.67;;;1.20;;
46653;SDS011;38960;51.074;17.004;2023-12-20T05:40:07;2.17;;;1.40;;
46653;SDS011;38960;51.074;17.004;2023-12-20T05:42:35;3.08;;;1.45;;
46653;SDS011;38960;51.074;17.004;2023-12-20T05:45:02;2.42;;;1.38;;
46653;SDS011;38960;51.074;17.004;2023-12-20T05:47:27;3.20;;;1.27;;
46653;SDS011;38960;51.074;17.004;2023-12-20T05:49:53;2.25;;;1.30;;
46653;SDS011;38960;51.074;17.004;2023-12-20T05:52:18;4.93;;;1.85;;
46653;SDS011;38960;51.074;17.004;2023-12-20T05:54:44;2.28;;;1.20;;
46653;SDS011;38960;51.074;17.004;2023-12-20T05:57:09;2.45;;;1.25;;
46653;SDS011;38960;51.074;17.004;2023-12-20T05:59:35;2.33;;;1.30;;
46653;SDS011;38960;51.074;17.004;2023-12-20T06:02:00;2.25;;;1.10;;
46653;SDS011;38960;51.074;17.004;2023-12-20T06:04:28;1.98;;;1.33;;
46653;SDS011;38960;51.074;17.004;2023-12-20T06:06:54;2.42;;;1.50;;
46653;SDS011;38960;51.074;17.004;2023-12-20T06:09:19;2.08;;;1.33;;
46653;SDS011;38960;51.074;17.004;2023-12-20T06:11:45;2.85;;;1.60;;
46653;SDS011;38960;51.074;17.004;2023-12-20T06:14:11;2.38;;;1.40;;
46653;SDS011;38960;51.074;17.004;2023-12-20T06:16:36;2.55;;;1.77;;
46653;SDS011;38960;51.074;17.004;2023-12-20T06:19:02;2.42;;;1.50;;
46653;SDS011;38960;51.074;17.004;2023-12-20T06:21:27;3.65;;;1.50;;
46653;SDS011;38960;51.074;17.004;2023-12-20T06:23:53;2.67;;;1.30;;
46653;SDS011;38960;51.074;17.004;2023-12-20T06:26:18;1.85;;;1.10;;
46653;SDS011;38960;51.074;17.004;2023-12-20T06:28:44;3.72;;;1.50;;
46653;SDS011;38960;51.074;17.004;2023-12-20T06:31:09;2.92;;;1.45;;
46653;SDS011;38960;51.074;17.004;2023-12-20T06:33:35;1.90;;;1.15;;
46653;SDS011;38960;51.074;17.004;2023-12-20T06:36:01;3.13;;;1.65;;
46653;SDS011;38960;51.074;17.004;2023-12-20T06:38:26;1.30;;;1.13;;
46653;SDS011;38960;51.074;17.004;2023-12-20T06:40:52;2.33;;;1.58;;
46653;SDS011;38960;51.074;17.004;2023-12-20T06:43:17;2.38;;;1.30;;
46653;SDS011;38960;51.074;17.004;2023-12-20T06:45:43;3.65;;;1.63;;
46653;SDS011;38960;51.074;17.004;2023-12-20T06:48:08;3.38;;;2.45;;
46653;SDS011;38960;51.074;17.004;2023-12-20T06:50:36;2.95;;;1.70;;
46653;SDS011;38960;51.074;17.004;2023-12-20T06:53:05;1.85;;;1.30;;
46653;SDS011;38960;51.074;17.004;2023-12-20T06:55:32;3.10;;;1.40;;
46653;SDS011;38960;51.074;17.004;2023-12-20T06:58:00;2.88;;;1.35;;
46653;SDS011;38960;51.074;17.004;2023-12-20T07:00:26;2.33;;;1.13;;
46653;SDS011;38960;51.074;17.004;2023-12-20T07:02:51;2.90;;;1.27;;
46653;SDS011;38960;51.074;17.004;2023-12-20T07:05:17;2.75;;;1.15;;
46653;SDS011;38960;51.074;17.004;2023-12-20T07:07:45;1.85;;;1.10;;
46653;SDS011;38960;51.074;17.004;2023-12-20T07:10:11;1.58;;;1.35;;
46653;SDS011;38960;51.074;17.004;2023-12-20T07:12:37;2.85;;;1.30;;
46653;SDS011;38960;51.074;17.004;2023-12-20T07:15:03;3.03;;;1.25;;
46653;SDS011;38960;51.074;17.004;2023-12-20T07:17:28;2.10;;;1.30;;
46653;SDS011;38960;51.074;17.004;2023-12-20T07:19:54;5.70;;;1.70;;
46653;SDS011;38960;51.074;17.004;2023-12-20T07:22:19;1.23;;;0.93;;
46653;SDS011;38960;51.074;17.004;2023-12-20T07:24:45;2.40;;;1.02;;
46653;SDS011;38960;51.074;17.004;2023-12-20T07:27:11;2.28;;;1.42;;
46653;SDS011;38960;51.074;17.004;2023-12-20T07:29:37;2.45;;;1.40;;
46653;SDS011;38960;51.074;17.004;2023-12-20T07:32:02;6.97;;;1.30;;
46653;SDS011;38960;51.074;17.004;2023-12-20T07:34:28;6.18;;;1.42;;
46653;SDS011;38960;51.074;17.004;2023-12-20T07:36:53;2.30;;;1.50;;
46653;SDS011;38960;51.074;17.004;2023-12-20T07:39:19;5.45;;;1.50;;
46653;SDS011;38960;51.074;17.004;2023-12-20T07:41:44;2.47;;;1.42;;
46653;SDS011;38960;51.074;17.004;2023-12-20T07:44:10;3.05;;;1.58;;
46653;SDS011;38960;51.074;17.004;2023-12-20T07:46:36;2.97;;;1.63;;
46653;SDS011;38960;51.074;17.004;2023-12-20T07:49:01;2.60;;;1.50;;
46653;SDS011;38960;51.074;17.004;2023-12-20T07:51:27;3.35;;;1.23;;
46653;SDS011;38960;51.074;17.004;2023-12-20T07:53:52;2.03;;;1.30;;
46653;SDS011;38960;51.074;17.004;2023-12-20T07:56:18;1.42;;;1.00;;
46653;SDS011;38960;51.074;17.004;2023-12-20T07:58:44;1.73;;;1.38;;
46653;SDS011;38960;51.074;17.004;2023-12-20T08:01:10;2.42;;;1.10;;
46653;SDS011;38960;51.074;17.004;2023-12-20T08:03:36;2.38;;;1.23;;
46653;SDS011;38960;51.074;17.004;2023-12-20T08:06:02;2.30;;;1.13;;
46653;SDS011;38960;51.074;17.004;2023-12-20T08:08:28;2.20;;;1.30;;
46653;SDS011;38960;51.074;17.004;2023-12-20T08:10:53;2.50;;;1.10;;
46653;SDS011;38960;51.074;17.004;2023-12-20T08:13:19;2.40;;;1.20;;
46653;SDS011;38960;51.074;17.004;2023-12-20T08:15:44;3.03;;;1.27;;
46653;SDS011;38960;51.074;17.004;2023-12-20T08:18:10;1.85;;;1.13;;
46653;SDS011;38960;51.074;17.004;2023-12-20T08:20:36;2.67;;;1.55;;
46653;SDS011;38960;51.074;17.004;2023-12-20T08:23:01;2.72;;;1.60;;
46653;SDS011;38960;51.074;17.004;2023-12-20T08:25:27;2.72;;;1.50;;
46653;SDS011;38960;51.074;17.004;2023-12-20T08:27:53;3.13;;;1.35;;
46653;SDS011;38960;51.074;17.004;2023-12-20T08:30:18;2.72;;;1.88;;
46653;SDS011;38960;51.074;17.004;2023-12-20T08:32:47;3.67;;;1.45;;
46653;SDS011;38960;51.074;17.004;2023-12-20T08:35:13;1.30;;;0.82;;
46653;SDS011;38960;51.074;17.004;2023-12-20T08:37:39;1.92;;;1.00;;
46653;SDS011;38960;51.074;17.004;2023-12-20T08:40:04;2.83;;;1.20;;
46653;SDS011;38960;51.074;17.004;2023-12-20T08:42:30;4.15;;;1.02;;
46653;SDS011;38960;51.074;17.004;2023-12-20T08:44:57;3.38;;;1.08;;
46653;SDS011;38960;51.074;17.004;2023-12-20T08:47:23;1.42;;;0.93;;
46653;SDS011;38960;51.074;17.004;2023-12-20T08:49:49;2.03;;;0.88;;
46653;SDS011;38960;51.074;17.004;2023-12-20T08:52:15;4.15;;;0.90;;
46653;SDS011;38960;51.074;17.004;2023-12-20T08:54:40;0.82;;;0.70;;
46653;SDS011;38960;51.074;17.004;2023-12-20T08:57:06;1.27;;;1.00;;
46653;SDS011;38960;51.074;17.004;2023-12-20T08:59:32;1.80;;;1.15;;
46653;SDS011;38960;51.074;17.004;2023-12-20T09:01:58;1.70;;;1.20;;
46653;SDS011;38960;51.074;17.004;2023-12-20T09:04:23;1.25;;;0.80;;
46653;SDS011;38960;51.074;17.004;2023-12-20T09:06:49;1.55;;;0.90;;
46653;SDS011;38960;51.074;17.004;2023-12-20T09:09:14;5.10;;;1.00;;
46653;SDS011;38960;51.074;17.004;2023-12-20T09:11:40;3.05;;;1.10;;
46653;SDS011;38960;51.074;17.004;2023-12-20T09:14:06;1.48;;;1.00;;
46653;SDS011;38960;51.074;17.004;2023-12-20T09:16:31;1.58;;;1.05;;
46653;SDS011;38960;51.074;17.004;2023-12-20T09:18:57;2.60;;;1.33;;
46653;SDS011;38960;51.074;17.004;2023-12-20T09:21:23;1.88;;;1.17;;
46653;SDS011;38960;51.074;17.004;2023-12-20T09:23:49;2.85;;;1.33;;
46653;SDS011;38960;51.074;17.004;2023-12-20T09:26:14;1.58;;;1.00;;
46653;SDS011;38960;51.074;17.004;2023-12-20T09:28:39;2.75;;;1.10;;
46653;SDS011;38960;51.074;17.004;2023-12-20T09:31:05;1.85;;;0.85;;
46653;SDS011;38960;51.074;17.004;2023-12-20T09:33:32;1.88;;;1.02;;
46653;SDS011;38960;51.074;17.004;2023-12-20T09:35:57;1.40;;;0.95;;
46653;SDS011;38960;51.074;17.004;2023-12-20T09:38:23;3.50;;;0.88;;
46653;SDS011;38960;51.074;17.004;2023-12-20T09:40:49;1.67;;;1.17;;
46653;SDS011;38960;51.074;17.004;2023-12-20T09:43:14;1.38;;;0.90;;
46653;SDS011;38960;51.074;17.004;2023-12-20T09:45:45;2.20;;;1.20;;
46653;SDS011;38960;51.074;17.004;2023-12-20T09:48:11;5.72;;;1.17;;
46653;SDS011;38960;51.074;17.004;2023-12-20T09:50:40;1.88;;;0.98;;
46653;SDS011;38960;51.074;17.004;2023-12-20T09:53:07;2.17;;;1.20;;
46653;SDS011;38960;51.074;17.004;2023-12-20T09:55:34;2.75;;;1.48;;
46653;SDS011;38960;51.074;17.004;2023-12-20T09:58:01;2.70;;;1.30;;
46653;SDS011;38960;51.074;17.004;2023-12-20T10:00:27;4.57;;;1.63;;
46653;SDS011;38960;51.074;17.004;2023-12-20T10:02:59;1.42;;;1.08;;
46653;SDS011;38960;51.074;17.004;2023-12-20T10:05:29;1.80;;;1.13;;
46653;SDS011;38960;51.074;17.004;2023-12-20T10:07:58;2.13;;;1.50;;
46653;SDS011;38960;51.074;17.004;2023-12-20T10:10:24;1.77;;;1.30;;
46653;SDS011;38960;51.074;17.004;2023-12-20T10:13:07;3.15;;;1.25;;
46653;SDS011;38960;51.074;17.004;2023-12-20T10:15:36;3.45;;;1.67;;
46653;SDS011;38960;51.074;17.004;2023-12-20T10:18:02;2.65;;;1.45;;
46653;SDS011;38960;51.074;17.004;2023-12-20T10:20:29;3.78;;;2.13;;
46653;SDS011;38960;51.074;17.004;2023-12-20T10:22:55;2.92;;;1.20;;
46653;SDS011;38960;51.074;17.004;2023-12-20T10:25:21;2.45;;;1.50;;
46653;SDS011;38960;51.074;17.004;2023-12-20T10:27:47;3.28;;;1.75;;
46653;SDS011;38960;51.074;17.004;2023-12-20T10:30:16;5.57;;;1.90;;
46653;SDS011;38960;51.074;17.004;2023-12-20T10:32:41;2.58;;;1.42;;
46653;SDS011;38960;51.074;17.004;2023-12-20T10:35:08;3.15;;;1.63;;
46653;SDS011;38960;51.074;17.004;2023-12-20T10:37:37;4.13;;;1.35;;
46653;SDS011;38960;51.074;17.004;2023-12-20T10:40:03;3.17;;;1.55;;
46653;SDS011;38960;51.074;17.004;2023-12-20T10:42:31;2.63;;;1.40;;
46653;SDS011;38960;51.074;17.004;2023-12-20T10:44:58;4.32;;;1.90;;
46653;SDS011;38960;51.074;17.004;2023-12-20T10:47:25;6.32;;;2.33;;
46653;SDS011;38960;51.074;17.004;2023-12-20T10:49:51;3.00;;;1.50;;
46653;SDS011;38960;51.074;17.004;2023-12-20T10:52:17;3.20;;;1.50;;
46653;SDS011;38960;51.074;17.004;2023-12-20T10:54:44;2.45;;;1.40;;
46653;SDS011;38960;51.074;17.004;2023-12-20T10:57:10;4.50;;;2.33;;
46653;SDS011;38960;51.074;17.004;2023-12-20T10:59:36;4.68;;;1.35;;
46653;SDS011;38960;51.074;17.004;2023-12-20T11:02:03;4.10;;;1.58;;
46653;SDS011;38960;51.074;17.004;2023-12-20T11:04:36;3.20;;;1.45;;
46653;SDS011;38960;51.074;17.004;2023-12-20T11:07:38;4.88;;;1.30;;
46653;SDS011;38960;51.074;17.004;2023-12-20T11:10:13;2.53;;;1.33;;
46653;SDS011;38960;51.074;17.004;2023-12-20T11:12:46;6.05;;;1.67;;
46653;SDS011;38960;51.074;17.004;2023-12-20T11:17:42;6.20;;;1.88;;
46653;SDS011;38960;51.074;17.004;2023-12-20T11:20:11;4.68;;;1.80;;
46653;SDS011;38960;51.074;17.004;2023-12-20T11:22:37;7.28;;;2.67;;
46653;SDS011;38960;51.074;17.004;2023-12-20T11:27:30;4.82;;;2.40;;
46653;SDS011;38960;51.074;17.004;2023-12-20T11:29:57;5.13;;;2.08;;
46653;SDS011;38960;51.074;17.004;2023-12-20T11:34:59;5.00;;;1.70;;
46653;SDS011;38960;51.074;17.004;2023-12-20T11:37:30;4.25;;;2.25;;
46653;SDS011;38960;51.074;17.004;2023-12-20T11:40:06;4.60;;;1.60;;
46653;SDS011;38960;51.074;17.004;2023-12-20T11:42:39;5.95;;;1.55;;
46653;SDS011;38960;51.074;17.004;2023-12-20T11:45:08;2.90;;;1.60;;
46653;SDS011;38960;51.074;17.004;2023-12-20T11:47:34;6.82;;;1.85;;
46653;SDS011;38960;51.074;17.004;2023-12-20T11:50:00;4.97;;;1.23;;
46653;SDS011;38960;51.074;17.004;2023-12-20T11:52:28;4.63;;;1.35;;
46653;SDS011;38960;51.074;17.004;2023-12-20T11:54:54;5.28;;;1.58;;
46653;SDS011;38960;51.074;17.004;2023-12-20T11:57:20;3.42;;;1.50;;
46653;SDS011;38960;51.074;17.004;2023-12-20T11:59:45;3.50;;;1.48;;
46653;SDS011;38960;51.074;17.004;2023-12-20T12:02:11;4.65;;;1.30;;
46653;SDS011;38960;51.074;17.004;2023-12-20T12:04:37;4.10;;;1.40;;
46653;SDS011;38960;51.074;17.004;2023-12-20T12:07:02;5.45;;;1.60;;
46653;SDS011;38960;51.074;17.004;2023-12-20T12:09:28;5.63;;;1.42;;
46653;SDS011;38960;51.074;17.004;2023-12-20T12:11:54;3.60;;;1.42;;
46653;SDS011;38960;51.074;17.004;2023-12-20T12:14:19;3.33;;;1.38;;
46653;SDS011;38960;51.074;17.004;2023-12-20T12:16:46;3.78;;;1.35;;
46653;SDS011;38960;51.074;17.004;2023-12-20T12:19:21;2.83;;;1.33;;
46653;SDS011;38960;51.074;17.004;2023-12-20T12:21:47;5.07;;;1.70;;
46653;SDS011;38960;51.074;17.004;2023-12-20T12:24:13;3.67;;;1.25;;
46653;SDS011;38960;51.074;17.004;2023-12-20T12:26:38;3.55;;;1.58;;
46653;SDS011;38960;51.074;17.004;2023-12-20T12:29:06;7.22;;;1.52;;
46653;SDS011;38960;51.074;17.004;2023-12-20T12:31:32;2.72;;;1.10;;
46653;SDS011;38960;51.074;17.004;2023-12-20T12:33:58;6.32;;;1.60;;
46653;SDS011;38960;51.074;17.004;2023-12-20T12:36:23;4.18;;;1.80;;
46653;SDS011;38960;51.074;17.004;2023-12-20T12:38:49;3.78;;;1.40;;
46653;SDS011;38960;51.074;17.004;2023-12-20T12:41:15;2.33;;;1.50;;
46653;SDS011;38960;51.074;17.004;2023-12-20T12:43:40;2.53;;;1.33;;
46653;SDS011;38960;51.074;17.004;2023-12-20T12:46:06;4.78;;;1.52;;
46653;SDS011;38960;51.074;17.004;2023-12-20T12:48:32;3.55;;;1.52;;
46653;SDS011;38960;51.074;17.004;2023-12-20T12:50:59;4.15;;;1.60;;
46653;SDS011;38960;51.074;17.004;2023-12-20T12:53:25;6.22;;;1.85;;
46653;SDS011;38960;51.074;17.004;2023-12-20T12:55:51;3.97;;;2.08;;
46653;SDS011;38960;51.074;17.004;2023-12-20T12:58:18;7.30;;;2.55;;
46653;SDS011;38960;51.074;17.004;2023-12-20T13:00:43;7.28;;;1.80;;
46653;SDS011;38960;51.074;17.004;2023-12-20T13:03:09;5.13;;;1.98;;
46653;SDS011;38960;51.074;17.004;2023-12-20T13:05:34;6.13;;;2.03;;
46653;SDS011;38960;51.074;17.004;2023-12-20T13:08:00;3.28;;;1.58;;
46653;SDS011;38960;51.074;17.004;2023-12-20T13:10:25;7.05;;;2.17;;
46653;SDS011;38960;51.074;17.004;2023-12-20T13:12:51;4.15;;;1.60;;
46653;SDS011;38960;51.074;17.004;2023-12-20T13:15:16;6.82;;;1.70;;
46653;SDS011;38960;51.074;17.004;2023-12-20T13:17:42;3.05;;;1.58;;
46653;SDS011;38960;51.074;17.004;2023-12-20T13:20:07;3.45;;;1.90;;
46653;SDS011;38960;51.074;17.004;2023-12-20T13:22:33;4.68;;;1.52;;
46653;SDS011;38960;51.074;17.004;2023-12-20T13:24:59;6.55;;;1.98;;
46653;SDS011;38960;51.074;17.004;2023-12-20T13:27:24;7.50;;;1.58;;
46653;SDS011;38960;51.074;17.004;2023-12-20T13:29:49;4.65;;;1.75;;
46653;SDS011;38960;51.074;17.004;2023-12-20T13:32:15;11.07;;;2.10;;
46653;SDS011;38960;51.074;17.004;2023-12-20T13:34:40;4.65;;;1.65;;
46653;SDS011;38960;51.074;17.004;2023-12-20T13:37:06;6.25;;;1.85;;
46653;SDS011;38960;51.074;17.004;2023-12-20T13:39:31;6.55;;;2.10;;
46653;SDS011;38960;51.074;17.004;2023-12-20T13:41:57;6.82;;;1.92;;
46653;SDS011;38960;51.074;17.004;2023-12-20T13:44:22;4.45;;;1.70;;
46653;SDS011;38960;51.074;17.004;2023-12-20T13:46:48;9.40;;;1.85;;
46653;SDS011;38960;51.074;17.004;2023-12-20T13:49:15;5.07;;;1.75;;
46653;SDS011;38960;51.074;17.004;2023-12-20T13:51:41;9.38;;;2.65;;
46653;SDS011;38960;51.074;17.004;2023-12-20T13:54:06;6.18;;;1.75;;
46653;SDS011;38960;51.074;17.004;2023-12-20T13:56:32;6.38;;;1.83;;
46653;SDS011;38960;51.074;17.004;2023-12-20T13:58:58;6.30;;;2.30;;
46653;SDS011;38960;51.074;17.004;2023-12-20T14:01:24;7.15;;;3.70;;
46653;SDS011;38960;51.074;17.004;2023-12-20T14:03:51;8.50;;;2.88;;
46653;SDS011;38960;51.074;17.004;2023-12-20T14:06:17;8.60;;;3.15;;
46653;SDS011;38960;51.074;17.004;2023-12-20T14:08:43;5.80;;;2.20;;
46653;SDS011;38960;51.074;17.004;2023-12-20T14:11:08;5.93;;;2.08;;
46653;SDS011;38960;51.074;17.004;2023-12-20T14:13:34;4.80;;;1.85;;
46653;SDS011;38960;51.074;17.004;2023-12-20T14:15:59;7.60;;;1.73;;
46653;SDS011;38960;51.074;17.004;2023-12-20T14:18:26;6.32;;;2.17;;
46653;SDS011;38960;51.074;17.004;2023-12-20T14:20:52;5.05;;;1.50;;
46653;SDS011;38960;51.074;17.004;2023-12-20T14:23:19;7.93;;;2.20;;
46653;SDS011;38960;51.074;17.004;2023-12-20T14:25:44;9.38;;;2.15;;
46653;SDS011;38960;51.074;17.004;2023-12-20T14:28:10;7.85;;;2.90;;
46653;SDS011;38960;51.074;17.004;2023-12-20T14:30:37;7.13;;;2.63;;
46653;SDS011;38960;51.074;17.004;2023-12-20T14:33:03;6.18;;;2.65;;